createdAt,value
2017-07-07T00:00:24.579Z,1007.17
2017-07-07T00:01:25.860Z,1007.1
2017-07-07T00:02:27.152Z,1007.02
2017-07-07T00:03:28.418Z,1006.98
2017-07-07T00:04:29.685Z,1006.91
2017-07-07T00:05:30.974Z,1006.91
2017-07-07T00:06:32.223Z,1006.94
2017-07-07T00:07:33.590Z,1006.94
2017-07-07T00:08:34.907Z,1006.94
2017-07-07T00:09:36.148Z,1006.93
2017-07-07T00:10:37.411Z,1006.97
2017-07-07T00:11:38.676Z,1006.94
2017-07-07T00:12:39.959Z,1006.95
2017-07-07T00:13:41.289Z,1006.88
2017-07-07T00:14:42.584Z,1006.86
2017-07-07T00:15:43.852Z,1006.82
2017-07-07T00:16:45.122Z,1006.83
2017-07-07T00:17:46.368Z,1006.77
2017-07-07T00:18:47.642Z,1006.82
2017-07-07T00:19:48.926Z,1006.78
2017-07-07T00:20:50.179Z,1006.71
2017-07-07T00:21:51.437Z,1006.67
2017-07-07T00:22:52.720Z,1006.61
2017-07-07T00:23:54.076Z,1006.57
2017-07-07T00:24:55.339Z,1006.54
2017-07-07T00:25:56.707Z,1006.47
2017-07-07T00:26:57.940Z,1006.43
2017-07-07T00:27:59.295Z,1006.37
2017-07-07T00:29:00.561Z,1006.4
2017-07-07T00:30:01.951Z,1006.37
2017-07-07T00:31:03.399Z,1006.34
2017-07-07T00:32:04.739Z,1006.34
2017-07-07T00:33:06.009Z,1006.36
2017-07-07T00:34:07.249Z,1006.35
2017-07-07T00:35:08.580Z,1006.34
2017-07-07T00:36:09.943Z,1006.34
2017-07-07T00:37:11.241Z,1006.39
2017-07-07T00:38:12.497Z,1006.38
2017-07-07T00:39:13.786Z,1006.36
2017-07-07T00:40:15.092Z,1006.36
2017-07-07T00:41:16.394Z,1006.35
2017-07-07T00:42:17.701Z,1006.34
2017-07-07T00:43:18.946Z,1006.31
2017-07-07T00:44:20.205Z,1006.3
2017-07-07T00:45:21.478Z,1006.24
2017-07-07T00:46:22.788Z,1006.21
2017-07-07T00:47:24.028Z,1006.16
2017-07-07T00:48:25.277Z,1006.13
2017-07-07T00:49:26.616Z,1006.08
2017-07-07T00:50:27.857Z,1006.1
2017-07-07T00:51:29.148Z,1006.09
2017-07-07T00:52:30.409Z,1006.04
2017-07-07T00:53:31.719Z,1006.01
2017-07-07T00:54:33.017Z,1006.03
2017-07-07T00:55:34.277Z,1005.98
2017-07-07T00:56:35.577Z,1005.99
2017-07-07T00:57:36.826Z,1006
2017-07-07T00:58:38.191Z,1005.97
2017-07-07T00:59:39.554Z,1006.01
2017-07-07T01:00:40.854Z,1006.04
2017-07-07T01:01:42.119Z,1006.07
2017-07-07T01:02:43.377Z,1006.02
2017-07-07T01:03:44.633Z,1006.02
2017-07-07T01:04:45.930Z,1006.05
2017-07-07T01:05:47.272Z,1006.03
2017-07-07T01:06:48.578Z,1006.11
2017-07-07T01:07:49.893Z,1006.11
2017-07-07T01:08:51.160Z,1006.1
2017-07-07T01:09:52.439Z,1006.13
2017-07-07T01:10:53.756Z,1006.13
2017-07-07T01:11:55.095Z,1006.11
2017-07-07T01:12:56.345Z,1006.14
2017-07-07T01:13:57.625Z,1006.14
2017-07-07T01:14:58.872Z,1006.18
2017-07-07T01:16:00.115Z,1006.23
2017-07-07T01:17:01.398Z,1006.24
2017-07-07T01:18:02.771Z,1006.24
2017-07-07T01:19:04.000Z,1006.25
2017-07-07T01:20:05.276Z,1006.21
2017-07-07T01:21:06.528Z,1006.2
2017-07-07T01:22:07.806Z,1006.21
2017-07-07T01:23:09.209Z,1006.22
2017-07-07T01:24:10.379Z,1006.29
2017-07-07T01:25:11.614Z,1006.25
2017-07-07T01:26:12.887Z,1006.27
2017-07-07T01:27:14.152Z,1006.28
2017-07-07T01:28:15.417Z,1006.27
2017-07-07T01:29:16.702Z,1006.3
2017-07-07T01:30:18.031Z,1006.31
2017-07-07T01:31:19.330Z,1006.28
2017-07-07T01:32:20.579Z,1006.32
2017-07-07T01:43:34.542Z,1006.41
2017-07-07T01:44:35.885Z,1006.59
2017-07-07T01:45:37.137Z,1006.61
2017-07-07T01:46:38.413Z,1006.65
2017-07-07T01:47:39.684Z,1006.63
2017-07-07T01:48:41.042Z,1006.62
2017-07-07T01:49:42.332Z,1006.66
2017-07-07T01:50:43.629Z,1006.65
2017-07-07T01:51:44.864Z,1006.65
2017-07-07T01:52:46.148Z,1006.65
2017-07-07T01:54:02.317Z,1006.7
2017-07-07T01:55:03.720Z,1006.73
2017-07-07T12:17:09.649Z,1006.59
2017-07-07T12:18:10.914Z,1006.53
2017-07-07T12:19:12.191Z,1006.58
2017-07-07T12:20:13.446Z,1006.56
2017-07-07T12:21:14.703Z,1006.53
2017-07-07T12:22:15.982Z,1006.56
2017-07-07T12:23:17.231Z,1006.57
2017-07-07T12:24:18.502Z,1006.6
2017-07-07T12:25:19.829Z,1006.58
2017-07-07T12:26:21.093Z,1006.56
2017-07-07T12:27:22.347Z,1006.67
2017-07-07T12:28:23.728Z,1006.58
2017-07-07T12:29:25.021Z,1006.57
2017-07-07T12:30:26.286Z,1006.67
2017-07-07T12:31:27.674Z,1006.59
2017-07-07T12:32:28.804Z,1006.58
2017-07-07T12:33:30.083Z,1006.65
2017-07-07T12:34:31.364Z,1006.66
2017-07-07T12:35:32.617Z,1006.64
2017-07-07T12:36:33.971Z,1006.56
2017-07-07T12:37:35.249Z,1006.66
2017-07-07T12:38:36.554Z,1006.71
2017-07-07T12:39:37.823Z,1006.65
2017-07-07T12:40:39.087Z,1006.63
2017-07-07T12:41:40.354Z,1006.64
2017-07-07T12:42:41.592Z,1006.61
2017-07-07T12:43:42.853Z,1006.57
2017-07-07T12:44:44.133Z,1006.57
2017-07-07T12:45:45.384Z,1006.6
2017-07-07T12:46:46.651Z,1006.65
2017-07-07T12:47:47.948Z,1006.67
2017-07-07T12:48:49.203Z,1006.63
2017-07-07T12:49:50.477Z,1006.71
2017-07-07T12:50:51.761Z,1006.75
2017-07-07T12:51:53.058Z,1006.74
2017-07-07T12:52:54.303Z,1006.7
2017-07-07T12:53:55.571Z,1006.64
2017-07-07T12:54:56.839Z,1006.63
2017-07-07T12:55:58.118Z,1006.62
2017-07-07T12:56:59.409Z,1006.68
2017-07-07T12:58:00.666Z,1006.68
2017-07-07T12:59:01.951Z,1006.71
2017-07-07T13:00:03.239Z,1006.66
2017-07-07T13:01:04.680Z,1006.6
2017-07-07T13:02:05.940Z,1006.61
2017-07-07T13:03:07.352Z,1006.64
2017-07-07T13:04:08.578Z,1006.61
2017-07-07T13:05:09.841Z,1006.61
2017-07-07T13:06:11.098Z,1006.56
2017-07-07T13:07:12.446Z,1006.59
2017-07-07T13:08:13.764Z,1006.59
2017-07-07T13:09:15.043Z,1006.59
2017-07-07T13:10:16.313Z,1006.61
2017-07-07T13:11:17.578Z,1006.64
2017-07-07T13:12:18.829Z,1006.65
2017-07-07T13:13:20.114Z,1006.68
2017-07-07T13:14:21.487Z,1006.69
2017-07-07T13:15:22.744Z,1006.66
2017-07-07T13:16:24.013Z,1006.73
2017-07-07T13:17:25.272Z,1006.66
2017-07-07T13:18:26.657Z,1006.62
2017-07-07T13:19:27.936Z,1006.62
2017-07-07T13:20:29.232Z,1006.64
2017-07-07T13:21:30.524Z,1006.66
2017-07-07T13:22:31.786Z,1006.69
2017-07-07T13:23:33.092Z,1006.74
2017-07-07T13:24:34.367Z,1006.75
2017-07-07T13:25:35.645Z,1006.71
2017-07-07T13:26:37.072Z,1006.69
2017-07-07T13:27:38.290Z,1006.68
2017-07-07T13:28:39.584Z,1006.6
2017-07-07T13:29:40.839Z,1006.68
2017-07-07T13:30:42.223Z,1006.73
2017-07-07T13:31:43.473Z,1006.68
2017-07-07T13:32:44.732Z,1006.7
2017-07-07T13:33:46.003Z,1006.68
2017-07-07T13:34:47.274Z,1006.64
2017-07-07T13:35:48.654Z,1006.7
2017-07-07T13:36:49.936Z,1006.71
2017-07-07T13:37:51.192Z,1006.69
2017-07-07T13:38:52.486Z,1006.67
2017-07-07T13:39:53.736Z,1006.73
2017-07-07T13:40:54.992Z,1006.68
2017-07-07T13:41:56.343Z,1006.64
2017-07-07T13:42:57.628Z,1006.58
2017-07-07T13:43:58.906Z,1006.59
2017-07-07T13:45:00.176Z,1006.6
2017-07-07T13:46:01.469Z,1006.5
2017-07-07T13:47:02.774Z,1006.57
2017-07-07T13:48:04.068Z,1006.57
2017-07-07T13:49:05.360Z,1006.58
2017-07-07T13:50:06.614Z,1006.58
2017-07-07T13:51:07.898Z,1006.57
2017-07-07T13:52:09.157Z,1006.56
2017-07-07T13:53:10.436Z,1006.59
2017-07-07T13:54:11.745Z,1006.7
2017-07-07T13:55:13.053Z,1006.66
2017-07-07T13:56:14.367Z,1006.61
2017-07-07T13:57:15.780Z,1006.59
2017-07-07T13:58:17.033Z,1006.56
2017-07-07T13:59:18.441Z,1006.49
2017-07-07T14:00:19.742Z,1006.51
2017-07-07T14:01:20.996Z,1006.51
2017-07-07T14:02:22.255Z,1006.47
2017-07-07T14:03:23.534Z,1006.48
2017-07-07T14:04:24.783Z,1006.46
2017-07-07T14:05:26.070Z,1006.45
2017-07-07T14:06:27.373Z,1006.46
2017-07-07T14:07:28.639Z,1006.43
2017-07-07T14:08:29.911Z,1006.43
2017-07-07T14:09:31.177Z,1006.36
2017-07-07T14:10:32.441Z,1006.35
2017-07-07T14:11:33.771Z,1006.33
2017-07-07T14:12:35.055Z,1006.33
2017-07-07T14:13:36.306Z,1006.32
2017-07-07T14:14:37.700Z,1006.38
2017-07-07T14:15:38.971Z,1006.27
2017-07-07T14:16:40.239Z,1006.27
2017-07-07T14:17:41.600Z,1006.25
2017-07-07T14:18:42.859Z,1006.25
2017-07-07T14:19:44.166Z,1006.26
2017-07-07T14:20:45.625Z,1006.31
2017-07-07T14:21:46.895Z,1006.28
2017-07-07T14:22:48.161Z,1006.35
2017-07-07T14:23:49.431Z,1006.37
2017-07-07T14:24:50.716Z,1006.27
2017-07-07T14:25:51.978Z,1006.28
2017-07-07T14:26:53.244Z,1006.23
2017-07-07T14:27:54.584Z,1006.34
2017-07-07T14:28:55.833Z,1006.3
2017-07-07T14:29:57.115Z,1006.26
2017-07-07T14:30:58.498Z,1006.28
2017-07-07T14:31:59.772Z,1006.24
2017-07-07T14:33:01.034Z,1006.21
2017-07-07T14:34:02.391Z,1006.18
2017-07-07T14:35:03.701Z,1006.25
2017-07-07T14:36:04.952Z,1006.26
2017-07-07T14:37:06.184Z,1006.32
2017-07-07T14:38:07.433Z,1006.26
2017-07-07T14:39:08.724Z,1006.21
2017-07-07T14:40:09.993Z,1006.17
2017-07-07T14:41:11.274Z,1006.19
2017-07-07T14:42:12.535Z,1006.16
2017-07-07T14:43:13.811Z,1006.21
2017-07-07T14:44:15.093Z,1006.16
2017-07-07T14:45:16.350Z,1006.28
2017-07-07T14:46:17.716Z,1006.31
2017-07-07T14:47:18.970Z,1006.3
2017-07-07T14:48:20.227Z,1006.33
2017-07-07T14:49:21.493Z,1006.33
2017-07-07T14:50:22.754Z,1006.29
2017-07-07T14:51:24.339Z,1006.24
2017-07-07T14:52:25.494Z,1006.35
2017-07-07T14:53:26.789Z,1006.35
2017-07-07T14:54:28.017Z,1006.41
2017-07-07T14:55:29.279Z,1006.35
2017-07-07T14:56:30.592Z,1006.42
2017-07-07T14:57:31.897Z,1006.41
2017-07-07T14:58:33.114Z,1006.38
2017-07-07T14:59:34.423Z,1006.41
2017-07-07T15:00:35.647Z,1006.47
2017-07-07T15:01:36.909Z,1006.5
2017-07-07T15:02:38.208Z,1006.5
2017-07-07T15:03:39.465Z,1006.5
2017-07-07T15:04:40.782Z,1006.52
2017-07-07T15:05:42.129Z,1006.48
2017-07-07T15:06:43.392Z,1006.54
2017-07-07T15:07:44.681Z,1006.53
2017-07-07T15:08:46.035Z,1006.53
2017-07-07T15:09:47.267Z,1006.57
2017-07-07T15:10:48.549Z,1006.55
2017-07-07T15:11:49.799Z,1006.52
2017-07-07T15:12:51.056Z,1006.54
2017-07-07T15:13:52.313Z,1006.59
2017-07-07T15:14:53.564Z,1006.55
2017-07-07T15:15:54.904Z,1006.59
2017-07-07T15:16:56.186Z,1006.61
2017-07-07T15:17:57.523Z,1006.56
2017-07-07T15:18:58.809Z,1006.56
2017-07-07T15:20:00.040Z,1006.57
2017-07-07T15:21:01.293Z,1006.6
2017-07-07T15:22:02.674Z,1006.58
2017-07-07T15:23:03.960Z,1006.55
2017-07-07T15:24:05.232Z,1006.51
2017-07-07T15:25:06.555Z,1006.46
2017-07-07T15:26:07.776Z,1006.39
2017-07-07T15:27:09.067Z,1006.45
2017-07-07T15:28:10.508Z,1006.5
2017-07-07T15:29:11.755Z,1006.54
2017-07-07T15:30:13.027Z,1006.61
2017-07-07T15:31:14.264Z,1006.64
2017-07-07T15:32:15.526Z,1006.63
2017-07-07T15:33:16.821Z,1006.55
2017-07-07T15:34:18.159Z,1006.56
2017-07-07T15:35:19.433Z,1006.56
2017-07-07T15:36:20.668Z,1006.57
2017-07-07T15:37:21.921Z,1006.52
2017-07-07T15:38:23.181Z,1006.52
2017-07-07T15:39:24.509Z,1006.53
2017-07-07T15:40:25.806Z,1006.53
2017-07-07T15:41:27.083Z,1006.56
2017-07-07T15:42:28.354Z,1006.57
2017-07-07T15:43:29.669Z,1006.55
2017-07-07T15:44:30.912Z,1006.58
2017-07-07T15:45:32.227Z,1006.58
2017-07-07T15:46:33.586Z,1006.58
2017-07-07T15:47:34.845Z,1006.51
2017-07-07T15:48:36.124Z,1006.51
2017-07-07T15:49:37.423Z,1006.52
2017-07-07T15:50:38.766Z,1006.47
2017-07-07T15:51:40.041Z,1006.47
2017-07-07T15:52:41.422Z,1006.43
2017-07-07T15:53:42.687Z,1006.44
2017-07-07T15:54:44.027Z,1006.45
2017-07-07T15:55:45.259Z,1006.43
2017-07-07T15:56:46.526Z,1006.41
2017-07-07T15:57:47.881Z,1006.42
2017-07-07T15:58:49.146Z,1006.45
2017-07-07T15:59:50.444Z,1006.48
2017-07-07T16:00:51.682Z,1006.47
2017-07-07T16:01:52.928Z,1006.55
2017-07-07T16:02:54.275Z,1006.51
2017-07-07T16:03:55.706Z,1006.6
2017-07-07T16:04:56.958Z,1006.63
2017-07-07T16:05:58.226Z,1006.64
2017-07-07T16:06:59.487Z,1006.64
2017-07-07T16:08:00.730Z,1006.67
2017-07-07T16:09:02.153Z,1006.72
2017-07-07T16:10:03.420Z,1006.74
2017-07-07T16:11:04.686Z,1006.71
2017-07-07T16:12:05.947Z,1006.73
2017-07-07T16:13:07.217Z,1006.73
2017-07-07T16:14:08.506Z,1006.7
2017-07-07T16:15:09.752Z,1006.7
2017-07-07T16:16:11.016Z,1006.71
2017-07-07T16:17:12.284Z,1006.66
2017-07-07T16:18:13.540Z,1006.62
2017-07-07T16:19:14.818Z,1006.69
2017-07-07T16:20:16.088Z,1006.64
2017-07-07T16:21:17.369Z,1006.6
2017-07-07T16:22:18.623Z,1006.59
2017-07-07T16:23:19.926Z,1006.63
2017-07-07T16:24:21.183Z,1006.62
2017-07-07T16:25:22.445Z,1006.59
2017-07-07T16:26:23.728Z,1006.58
2017-07-07T16:27:24.967Z,1006.49
2017-07-07T16:28:26.281Z,1006.53
2017-07-07T16:29:27.543Z,1006.55
2017-07-07T16:30:28.793Z,1006.53
2017-07-07T16:31:30.066Z,1006.5
2017-07-07T16:32:31.305Z,1006.55
2017-07-07T16:33:32.600Z,1006.53
2017-07-07T16:34:33.833Z,1006.52
2017-07-07T16:35:35.091Z,1006.52
2017-07-07T16:36:36.380Z,1006.48
2017-07-07T16:37:37.626Z,1006.58
2017-07-07T16:38:38.885Z,1006.49
2017-07-07T16:39:40.253Z,1006.47
2017-07-07T16:40:41.538Z,1006.46
2017-07-07T16:41:42.756Z,1006.47
2017-07-07T16:42:44.004Z,1006.55
2017-07-07T16:43:45.263Z,1006.48
2017-07-07T16:44:46.545Z,1006.51
2017-07-07T16:45:47.891Z,1006.5
2017-07-07T16:46:49.188Z,1006.53
2017-07-07T16:47:50.422Z,1006.51
2017-07-07T16:48:51.685Z,1006.51
2017-07-07T16:49:52.935Z,1006.52
2017-07-07T16:50:54.215Z,1006.57
2017-07-07T16:51:55.469Z,1006.5
2017-07-07T16:52:56.792Z,1006.49
2017-07-07T16:53:58.049Z,1006.49
2017-07-07T16:54:59.298Z,1006.53
2017-07-07T16:56:00.547Z,1006.49
2017-07-07T16:57:01.807Z,1006.48
2017-07-07T16:58:03.085Z,1006.42
2017-07-07T16:59:04.412Z,1006.46
2017-07-07T17:00:05.728Z,1006.48
2017-07-07T17:01:06.984Z,1006.48
2017-07-07T17:02:08.250Z,1006.47
2017-07-07T17:03:09.501Z,1006.51
2017-07-07T17:04:10.896Z,1006.41
2017-07-07T17:05:12.255Z,1006.52
2017-07-07T17:06:13.496Z,1006.5
2017-07-07T17:07:14.752Z,1006.53
2017-07-07T17:08:16.098Z,1006.53
2017-07-07T17:09:17.354Z,1006.56
2017-07-07T17:10:18.599Z,1006.57
2017-07-07T17:11:19.849Z,1006.62
2017-07-07T17:12:21.111Z,1006.65
2017-07-07T17:13:22.368Z,1006.62
2017-07-07T17:14:23.641Z,1006.65
2017-07-07T17:15:24.907Z,1006.69
2017-07-07T17:16:26.186Z,1006.67
2017-07-07T17:17:27.472Z,1006.67
2017-07-07T17:18:28.720Z,1006.66
2017-07-07T17:19:29.984Z,1006.67
2017-07-07T17:20:31.233Z,1006.7
2017-07-07T17:21:32.499Z,1006.69
2017-07-07T17:22:33.790Z,1006.75
2017-07-07T17:23:35.088Z,1006.74
2017-07-07T17:24:36.344Z,1006.73
2017-07-07T17:25:37.596Z,1006.75
2017-07-07T17:26:38.955Z,1006.74
2017-07-07T17:27:40.254Z,1006.73
2017-07-07T17:28:41.517Z,1006.75
2017-07-07T17:29:42.773Z,1006.77
2017-07-07T17:30:44.081Z,1006.8
2017-07-07T17:31:45.364Z,1006.8
2017-07-07T17:32:46.611Z,1006.77
2017-07-07T17:33:47.880Z,1006.79
2017-07-07T17:34:49.134Z,1006.86
2017-07-07T17:35:50.438Z,1006.82
2017-07-07T17:36:51.713Z,1006.86
2017-07-07T17:37:52.971Z,1006.83
2017-07-07T17:38:54.292Z,1006.87
2017-07-07T17:39:55.568Z,1006.87
2017-07-07T17:40:56.832Z,1006.88
2017-07-07T17:41:58.086Z,1006.86
2017-07-07T17:42:59.353Z,1006.86
2017-07-07T17:44:00.617Z,1006.84
2017-07-07T17:45:01.851Z,1006.86
2017-07-07T17:46:03.102Z,1006.83
2017-07-07T17:47:04.483Z,1006.82
2017-07-07T17:48:05.742Z,1006.91
2017-07-07T17:49:06.997Z,1006.88
2017-07-07T17:50:08.301Z,1006.87
2017-07-07T17:51:09.519Z,1006.87
2017-07-07T17:52:10.772Z,1006.85
2017-07-07T17:53:12.123Z,1006.91
2017-07-07T17:54:13.392Z,1006.89
2017-07-07T17:55:14.621Z,1006.88
2017-07-07T17:56:15.897Z,1006.89
2017-07-07T17:57:17.229Z,1006.88
2017-07-07T17:58:18.489Z,1006.93
2017-07-07T17:59:19.806Z,1006.95
2017-07-07T18:00:21.052Z,1006.93
2017-07-07T18:01:22.294Z,1006.97
2017-07-07T18:02:23.549Z,1006.97
2017-07-07T18:03:24.821Z,1006.93
2017-07-07T18:04:26.103Z,1006.9
2017-07-07T18:05:27.443Z,1006.88
2017-07-07T18:06:28.710Z,1006.91
2017-07-07T18:07:30.003Z,1006.93
2017-07-07T18:08:31.226Z,1006.86
2017-07-07T18:09:32.478Z,1006.86
2017-07-07T18:10:33.793Z,1006.83
2017-07-07T18:11:35.062Z,1006.86
2017-07-07T18:12:36.341Z,1006.91
2017-07-07T18:13:37.582Z,1006.89
2017-07-07T18:14:38.904Z,1006.86
2017-07-07T18:15:40.146Z,1006.88
2017-07-07T18:16:41.416Z,1006.91
2017-07-07T18:17:42.664Z,1006.96
2017-07-07T18:18:44.031Z,1006.94
2017-07-07T18:19:45.276Z,1006.95
2017-07-07T18:20:46.553Z,1006.94
2017-07-07T18:21:48.259Z,1006.93
2017-07-07T18:22:49.424Z,1006.97
2017-07-07T18:23:50.661Z,1006.94
2017-07-07T18:24:51.943Z,1006.98
2017-07-07T18:25:53.182Z,1007.04
2017-07-07T18:26:54.444Z,1007.04
2017-07-07T18:27:55.696Z,1007.04
2017-07-07T18:28:56.950Z,1007.05
2017-07-07T18:29:58.196Z,1007.01
2017-07-07T18:30:59.474Z,1007
2017-07-07T18:32:00.783Z,1007.04
2017-07-07T18:33:02.119Z,1007.02
2017-07-07T18:34:03.349Z,1007.03
2017-07-07T18:35:04.612Z,1007.03
2017-07-07T18:36:05.875Z,1006.98
2017-07-07T18:37:07.132Z,1006.98
2017-07-07T18:38:08.377Z,1007.02
2017-07-07T18:39:09.632Z,1006.99
2017-07-07T18:40:10.947Z,1006.98
2017-07-07T18:41:12.160Z,1006.98
2017-07-07T18:42:13.485Z,1007
2017-07-07T18:43:14.728Z,1006.94
2017-07-07T18:44:16.015Z,1007.02
2017-07-07T18:45:17.298Z,1007.01
2017-07-07T18:46:18.590Z,1006.99
2017-07-07T18:47:19.811Z,1007.01
2017-07-07T18:48:21.059Z,1007.02
2017-07-07T18:49:22.338Z,1006.99
2017-07-07T18:50:23.577Z,1007.04
2017-07-07T18:51:24.868Z,1007.05
2017-07-07T18:52:26.336Z,1007.08
2017-07-07T18:53:27.564Z,1007.06
2017-07-07T18:54:28.838Z,1007.05
2017-07-07T18:55:30.111Z,1007.04
2017-07-07T18:56:31.366Z,1007.11
2017-07-07T18:57:32.702Z,1007.07
2017-07-07T18:58:34.000Z,1007.09
2017-07-07T18:59:35.252Z,1007.1
2017-07-07T19:00:36.498Z,1007.14
2017-07-07T19:01:37.768Z,1007.19
2017-07-07T19:02:39.031Z,1007.22
2017-07-07T19:03:40.340Z,1007.16
2017-07-07T19:04:41.660Z,1007.2
2017-07-07T19:05:42.949Z,1007.16
2017-07-07T19:06:44.184Z,1007.18
2017-07-07T19:07:45.443Z,1007.2
2017-07-07T19:08:46.790Z,1007.24
2017-07-07T19:09:48.069Z,1007.27
2017-07-07T19:10:49.308Z,1007.25
2017-07-07T19:11:50.604Z,1007.25
2017-07-07T19:12:51.837Z,1007.34
2017-07-07T19:13:53.100Z,1007.31
2017-07-07T19:14:54.385Z,1007.27
2017-07-07T19:15:55.667Z,1007.35
2017-07-07T19:16:56.907Z,1007.28
2017-07-07T19:17:58.222Z,1007.38
2017-07-07T19:18:59.479Z,1007.39
2017-07-07T19:20:00.727Z,1007.38
2017-07-07T19:21:02.010Z,1007.39
2017-07-07T19:22:03.249Z,1007.45
2017-07-07T19:23:04.534Z,1007.47
2017-07-07T19:24:05.841Z,1007.46
2017-07-07T19:25:07.109Z,1007.46
2017-07-07T19:26:08.374Z,1007.57
2017-07-07T19:27:09.625Z,1007.53
2017-07-07T19:28:10.881Z,1007.58
2017-07-07T19:29:12.201Z,1007.6
2017-07-07T19:30:13.464Z,1007.59
2017-07-07T19:31:14.726Z,1007.61
2017-07-07T19:32:15.986Z,1007.59
2017-07-07T19:33:17.249Z,1007.63
2017-07-07T19:34:18.512Z,1007.6
2017-07-07T19:35:19.771Z,1007.61
2017-07-07T19:36:21.023Z,1007.63
2017-07-07T19:37:22.299Z,1007.63
2017-07-07T19:38:23.569Z,1007.67
2017-07-07T19:39:24.809Z,1007.64
2017-07-07T19:40:26.057Z,1007.68
2017-07-07T19:41:27.312Z,1007.69
2017-07-07T19:42:28.568Z,1007.68
2017-07-07T19:43:29.823Z,1007.71
2017-07-07T19:44:31.082Z,1007.74
2017-07-07T19:45:32.344Z,1007.77
2017-07-07T19:46:33.579Z,1007.77
2017-07-07T19:47:34.919Z,1007.82
2017-07-07T19:48:36.168Z,1007.83
2017-07-07T19:49:37.421Z,1007.88
2017-07-07T19:50:38.668Z,1007.85
2017-07-07T19:51:39.915Z,1007.86
2017-07-07T19:52:41.270Z,1007.86
2017-07-07T19:53:42.535Z,1007.86
2017-07-07T19:54:43.840Z,1007.89
2017-07-07T19:55:45.091Z,1007.91
2017-07-07T19:56:46.336Z,1007.94
2017-07-07T19:57:47.587Z,1007.96
2017-07-07T19:58:48.894Z,1007.97
2017-07-07T19:59:50.211Z,1008.01
2017-07-07T20:00:51.448Z,1008.05
2017-07-07T20:01:52.703Z,1008.04
2017-07-07T20:02:53.958Z,1008.06
2017-07-07T20:03:55.215Z,1008.06
2017-07-07T20:04:56.548Z,1008.08
2017-07-07T20:05:57.807Z,1008.08
2017-07-07T20:06:59.075Z,1008.08
2017-07-07T20:08:00.358Z,1008.12
2017-07-07T20:09:01.629Z,1008.08
2017-07-07T20:10:02.944Z,1008.13
2017-07-07T20:11:04.194Z,1008.12
2017-07-07T20:12:05.465Z,1008.18
2017-07-07T20:13:06.727Z,1008.2
2017-07-07T20:14:07.971Z,1008.17
2017-07-07T20:15:09.259Z,1008.21
2017-07-07T20:16:10.514Z,1008.25
2017-07-07T20:17:11.758Z,1008.31
2017-07-07T20:18:13.019Z,1008.29
2017-07-07T20:19:14.265Z,1008.33
2017-07-07T20:20:15.523Z,1008.3
2017-07-07T20:21:16.792Z,1008.3
2017-07-07T20:22:18.040Z,1008.35
2017-07-07T20:23:19.364Z,1008.29
2017-07-07T20:24:20.659Z,1008.29
2017-07-07T20:25:21.989Z,1008.3
2017-07-07T20:26:23.246Z,1008.27
2017-07-07T20:27:24.497Z,1008.31
2017-07-07T20:28:25.801Z,1008.32
2017-07-07T20:29:27.044Z,1008.37
2017-07-07T20:30:28.307Z,1008.33
2017-07-07T20:31:29.553Z,1008.36
2017-07-07T20:32:30.801Z,1008.33
2017-07-07T20:33:32.058Z,1008.37
2017-07-07T20:34:33.310Z,1008.3
2017-07-07T20:35:34.695Z,1008.38
2017-07-07T20:36:35.930Z,1008.4
2017-07-07T20:37:37.192Z,1008.4
2017-07-07T20:38:38.430Z,1008.39
2017-07-07T20:39:39.677Z,1008.35
2017-07-07T20:40:40.994Z,1008.36
2017-07-07T20:41:42.305Z,1008.4
2017-07-07T20:42:43.580Z,1008.41
2017-07-07T20:43:44.811Z,1008.4
2017-07-07T20:44:46.196Z,1008.44
2017-07-07T20:45:47.447Z,1008.46
2017-07-07T20:46:48.718Z,1008.49
2017-07-07T20:47:49.996Z,1008.49
2017-07-07T20:48:51.244Z,1008.49
2017-07-07T20:49:52.545Z,1008.45
2017-07-07T20:50:53.799Z,1008.46
2017-07-07T20:51:55.052Z,1008.46
2017-07-07T20:52:56.319Z,1008.44
2017-07-07T20:53:57.551Z,1008.45
2017-07-07T20:54:58.816Z,1008.44
2017-07-07T20:56:00.059Z,1008.46
2017-07-07T20:57:01.324Z,1008.48
2017-07-07T20:58:02.573Z,1008.45
2017-07-07T20:59:03.822Z,1008.45
2017-07-07T21:00:05.119Z,1008.45
2017-07-07T21:01:06.473Z,1008.48
2017-07-07T21:02:07.765Z,1008.48
2017-07-07T21:03:09.024Z,1008.5
2017-07-07T21:04:10.261Z,1008.53
2017-07-07T21:05:11.506Z,1008.51
2017-07-07T21:06:12.767Z,1008.55
2017-07-07T21:07:14.106Z,1008.55
2017-07-07T21:08:15.369Z,1008.56
2017-07-07T21:09:16.614Z,1008.58
2017-07-07T21:10:17.867Z,1008.57
2017-07-07T21:11:19.112Z,1008.58
2017-07-07T21:12:20.398Z,1008.6
2017-07-07T21:13:21.676Z,1008.62
2017-07-07T21:14:22.927Z,1008.62
2017-07-07T21:15:24.197Z,1008.67
2017-07-07T21:16:25.455Z,1008.69
2017-07-07T21:17:26.704Z,1008.74
2017-07-07T21:18:28.076Z,1008.77
2017-07-07T21:19:29.216Z,1008.82
2017-07-07T21:20:30.519Z,1008.81
2017-07-07T21:21:31.774Z,1008.82
2017-07-07T21:22:33.026Z,1008.85
2017-07-07T21:23:34.291Z,1008.85
2017-07-07T21:24:35.546Z,1008.86
2017-07-07T21:25:36.805Z,1008.84
2017-07-07T21:26:38.133Z,1008.82
2017-07-07T21:27:39.364Z,1008.81
2017-07-07T21:28:40.634Z,1008.79
2017-07-07T21:29:41.879Z,1008.77
2017-07-07T21:30:43.142Z,1008.77
2017-07-07T21:31:44.478Z,1008.75
2017-07-07T21:32:45.733Z,1008.73
2017-07-07T21:33:46.987Z,1008.72
2017-07-07T21:34:48.284Z,1008.72
2017-07-07T21:35:49.518Z,1008.71
2017-07-07T21:36:50.804Z,1008.71
2017-07-07T21:37:52.174Z,1008.67
2017-07-07T21:38:53.425Z,1008.66
2017-07-07T21:39:54.686Z,1008.65
2017-07-07T21:40:55.937Z,1008.65
2017-07-07T21:41:57.197Z,1008.59
2017-07-07T21:42:58.436Z,1008.61
2017-07-07T21:43:59.697Z,1008.6
2017-07-07T21:45:00.974Z,1008.59
2017-07-07T21:46:02.204Z,1008.62
2017-07-07T21:47:03.508Z,1008.62
2017-07-07T21:48:04.755Z,1008.64
2017-07-07T21:49:06.018Z,1008.66
2017-07-07T21:50:07.253Z,1008.64
2017-07-07T21:51:08.528Z,1008.66
2017-07-07T21:52:09.785Z,1008.65
2017-07-07T21:53:11.018Z,1008.62
2017-07-07T21:54:12.351Z,1008.59
2017-07-07T21:55:13.508Z,1008.57
2017-07-07T21:56:14.774Z,1008.54
2017-07-07T21:57:16.036Z,1008.54
2017-07-07T21:58:17.296Z,1008.53
2017-07-07T21:59:18.550Z,1008.57
2017-07-07T22:00:19.803Z,1008.58
2017-07-07T22:01:21.144Z,1008.55
2017-07-07T22:02:22.525Z,1008.58
2017-07-07T22:03:23.792Z,1008.62
2017-07-07T22:04:25.069Z,1008.64
2017-07-07T22:05:26.327Z,1008.62
2017-07-07T22:06:27.572Z,1008.63
2017-07-07T22:07:29.054Z,1008.63
2017-07-07T22:08:30.441Z,1008.57
2017-07-07T22:09:31.708Z,1008.61
2017-07-07T22:10:32.972Z,1008.64
2017-07-07T22:11:34.209Z,1008.62
2017-07-07T22:12:35.483Z,1008.7
2017-07-07T22:13:36.795Z,1008.71
2017-07-07T22:14:38.066Z,1008.72
2017-07-07T22:15:39.323Z,1008.71
2017-07-07T22:16:40.590Z,1008.75
2017-07-07T22:17:41.880Z,1008.77
2017-07-07T22:18:43.131Z,1008.8
2017-07-07T22:19:44.450Z,1008.81
2017-07-07T22:20:45.718Z,1008.78
2017-07-07T22:21:47.005Z,1008.78
2017-07-07T22:22:48.252Z,1008.8
2017-07-07T22:23:49.505Z,1008.83
2017-07-07T22:24:50.863Z,1008.84
2017-07-07T22:25:52.113Z,1008.84
2017-07-07T22:26:53.390Z,1008.86
2017-07-07T22:27:54.619Z,1008.86
2017-07-07T22:28:55.868Z,1008.86
2017-07-07T22:29:57.147Z,1008.79
2017-07-07T22:30:58.376Z,1008.8
2017-07-07T22:31:59.627Z,1008.81
2017-07-07T22:33:00.882Z,1008.77
2017-07-07T22:34:02.161Z,1008.79
2017-07-07T22:35:03.416Z,1008.8
2017-07-07T22:36:04.684Z,1008.79
2017-07-07T22:37:05.929Z,1008.76
2017-07-07T22:38:07.238Z,1008.76
2017-07-07T22:39:08.568Z,1008.76
2017-07-07T22:40:09.872Z,1008.75
2017-07-07T22:41:11.135Z,1008.77
2017-07-07T22:42:12.377Z,1008.73
2017-07-07T22:43:13.625Z,1008.74
2017-07-07T22:44:14.875Z,1008.77
2017-07-07T22:45:16.132Z,1008.73
2017-07-07T22:46:17.507Z,1008.74
2017-07-07T22:47:18.754Z,1008.79
2017-07-07T22:48:20.009Z,1008.79
2017-07-07T22:49:21.262Z,1008.81
2017-07-07T22:50:22.529Z,1008.82
2017-07-07T22:51:23.830Z,1008.8
2017-07-07T22:52:25.077Z,1008.77
2017-07-07T22:53:26.354Z,1008.79
2017-07-07T22:54:27.619Z,1008.79